Main page
METAR-TAF:

METAR-TAF

Airports :

Libertador General José de San Martín Airport

Posadas, Argentina

latitude: 27-22S, longitude: 055-58W, elevation: 131 m

Current weather observation

The report was made 1 hour and 16 minutes ago, at 06:00 UTC
Wind 2 kt from the North
Temperature 26°C
Humidity 74%
Pressure 1010 hPa
Visibility 10 km or more
no clouds below 1500 m and no cumulonimbus

METAR: SARP 080600Z 36002KT CAVOK 26/21 Q1010

Time: 04:16 (07:16 UTC)

Forecast

The report was made 2 hours and 16 minutes ago, at 05:00 UTC
Forecast valid from 08 at 06 UTC to 09 at 06 UTC
Wind 5 kt from the North/Northeast
Visibility 10 km or more
no clouds below 1500 m and no cumulonimbus
Becoming
from 08 at 14 UTC to 08 at 16 UTC
Visibility 10 km or more
Scattered clouds at a height of 3500 ft

TAF: SARP 080500Z 0806/0906 02005KT CAVOK TX37/0818Z TN24/0809Z BECMG 0814/0816 9999 SCT035

Weather observations and forecasts of more than 4000 airports (METAR and TAF reports).

The available stations are represented by yellow and red dots on the map.

Hover mouse over dot to see the name of the station.

Then click to see weather observations and forecasts.

To change the map : click on the green buttons with a black cross to zoom in, on the green button with a dash to zoom out, or on the green arrows for adjacent maps.


METAR-TAF: